Time;durP1;ratioP1;P1;durP2;ratioP2;P2;SDS_P1;SDS_P2;PMS_P1;PMS_P2;Temp;Humidity;BMP_temperature;BMP_pressure;BME280_temperature;BME280_humidity;BME280_pressure;Samples;Min_cycle;Max_cycle;Signal;HPM_P1;HPM_P2
2021/09/24 00:00:24;;;;;;;11.77;10.50;;;16.70;99.90;;;;;;5011576;28;20605;-64
2021/09/24 00:02:49;;;;;;;15.10;11.40;;;16.70;99.90;;;;;;5020497;28;20246;-64
2021/09/24 00:05:15;;;;;;;12.20;10.97;;;16.70;99.90;;;;;;5031198;28;20203;-64
2021/09/24 00:07:41;;;;;;;14.83;12.27;;;16.70;99.90;;;;;;5023845;28;20691;-64
2021/09/24 00:10:08;;;;;;;12.73;11.53;;;16.70;99.90;;;;;;5011493;28;20634;-64
2021/09/24 00:12:34;;;;;;;15.30;10.87;;;16.80;99.90;;;;;;5017306;28;20281;-64
2021/09/24 00:15:00;;;;;;;14.13;10.80;;;16.70;99.90;;;;;;5031377;28;20671;-64
2021/09/24 00:17:26;;;;;;;12.30;11.07;;;16.70;99.90;;;;;;5025814;28;20189;-64
2021/09/24 00:19:52;;;;;;;12.40;11.13;;;16.70;99.90;;;;;;5010113;28;20179;-64
2021/09/24 00:22:17;;;;;;;18.20;11.60;;;16.70;99.90;;;;;;5013616;28;20724;-64
2021/09/24 00:24:43;;;;;;;13.90;10.80;;;16.70;99.90;;;;;;5031292;28;20182;-64
2021/09/24 00:27:08;;;;;;;14.13;10.73;;;16.70;99.90;;;;;;5029422;28;20179;-64
2021/09/24 00:29:34;;;;;;;13.23;11.87;;;16.70;99.90;;;;;;5011374;28;20251;-64
2021/09/24 00:32:00;;;;;;;13.07;10.53;;;16.70;99.90;;;;;;5011302;28;20669;-64
2021/09/24 00:34:25;;;;;;;13.57;12.17;;;16.70;99.90;;;;;;5031282;28;20172;-64
2021/09/24 00:36:51;;;;;;;16.60;11.97;;;16.70;99.90;;;;;;5030232;28;20542;-64
2021/09/24 00:39:17;;;;;;;12.40;11.10;;;16.70;99.90;;;;;;5030490;28;20194;-63
2021/09/24 00:41:43;;;;;;;13.80;12.00;;;16.70;99.90;;;;;;5031048;28;20183;-64
2021/09/24 00:44:08;;;;;;;12.80;11.50;;;16.70;99.90;;;;;;5011818;28;20263;-64
2021/09/24 00:46:34;;;;;;;11.90;10.90;;;16.80;99.90;;;;;;5011421;28;20172;-64
2021/09/24 00:48:59;;;;;;;13.23;10.87;;;16.70;99.90;;;;;;5022401;28;20216;-64
2021/09/24 00:51:25;;;;;;;15.10;12.13;;;16.70;99.90;;;;;;5011389;28;20176;-64
2021/09/24 00:53:52;;;;;;;15.00;11.83;;;16.70;99.90;;;;;;5027824;28;20230;-64
2021/09/24 00:56:19;;;;;;;18.07;11.53;;;16.70;99.90;;;;;;5034768;28;20235;-64
2021/09/24 00:58:45;;;;;;;13.80;12.40;;;16.70;99.90;;;;;;5020401;28;20192;-64
2021/09/24 01:01:10;;;;;;;15.20;11.80;;;16.70;99.90;;;;;;5014737;28;20172;-64
2021/09/24 01:03:36;;;;;;;16.90;12.50;;;16.70;99.90;;;;;;5016018;28;20206;-64
2021/09/24 01:06:02;;;;;;;13.60;12.13;;;16.70;99.90;;;;;;5015399;28;20494;-64
2021/09/24 01:08:31;;;;;;;16.00;12.13;;;16.70;99.90;;;;;;5034650;28;20277;-64
2021/09/24 01:10:57;;;;;;;13.03;11.70;;;16.60;99.90;;;;;;5033304;28;20172;-64
2021/09/24 01:13:23;;;;;;;13.63;12.43;;;16.70;99.90;;;;;;5014732;28;20273;-64
2021/09/24 01:15:48;;;;;;;15.40;12.53;;;16.60;99.90;;;;;;5013351;28;20607;-64
2021/09/24 01:18:14;;;;;;;17.67;12.90;;;16.60;99.90;;;;;;5033253;28;20227;-64
2021/09/24 01:20:40;;;;;;;13.80;11.90;;;16.60;99.90;;;;;;5034154;28;20183;-64
2021/09/24 01:23:05;;;;;;;17.87;12.33;;;16.60;99.90;;;;;;5033373;28;20223;-64
2021/09/24 01:25:31;;;;;;;17.60;13.67;;;16.60;99.90;;;;;;5034335;28;20179;-64
2021/09/24 01:27:57;;;;;;;15.53;12.47;;;16.60;99.90;;;;;;5017495;28;20310;-64
2021/09/24 01:30:23;;;;;;;14.57;12.80;;;16.60;99.90;;;;;;5020096;28;20329;-64
2021/09/24 01:32:49;;;;;;;13.83;12.30;;;16.60;99.90;;;;;;5034071;28;20325;-64
2021/09/24 01:35:16;;;;;;;14.40;12.90;;;16.60;99.90;;;;;;5029402;28;20704;-64
2021/09/24 01:37:42;;;;;;;15.83;12.57;;;16.60;99.90;;;;;;5014371;28;20231;-64
2021/09/24 01:40:10;;;;;;;16.13;13.17;;;16.60;99.90;;;;;;5016679;28;20270;-64
2021/09/24 01:42:36;;;;;;;16.77;14.00;;;16.60;99.90;;;;;;5032760;28;20227;-64
2021/09/24 01:45:01;;;;;;;18.10;13.23;;;16.60;99.90;;;;;;5032178;28;20704;-64
2021/09/24 01:47:27;;;;;;;14.03;12.57;;;16.70;99.90;;;;;;5033965;28;20179;-64
2021/09/24 01:49:52;;;;;;;15.90;12.60;;;16.60;99.90;;;;;;5031156;28;20545;-64
2021/09/24 01:52:18;;;;;;;19.23;13.97;;;16.60;99.90;;;;;;5014248;28;20200;-64
2021/09/24 01:54:44;;;;;;;14.70;12.23;;;16.60;99.90;;;;;;5014062;28;20215;-64
2021/09/24 01:57:11;;;;;;;15.40;13.80;;;16.60;99.90;;;;;;5033846;28;20258;-64
2021/09/24 01:59:37;;;;;;;17.87;14.50;;;16.60;99.90;;;;;;5033383;28;20230;-64
2021/09/24 02:02:03;;;;;;;17.83;15.60;;;16.50;99.90;;;;;;5014606;28;20777;-64
2021/09/24 02:04:29;;;;;;;18.03;16.13;;;16.50;99.90;;;;;;5013477;28;20180;-64
2021/09/24 02:06:54;;;;;;;17.27;15.53;;;16.50;99.90;;;;;;5022823;28;20230;-64
2021/09/24 02:09:20;;;;;;;20.50;16.03;;;16.50;99.90;;;;;;5013408;28;20219;-64
2021/09/24 02:11:45;;;;;;;17.37;15.67;;;16.50;99.90;;;;;;5027039;28;20211;-64
2021/09/24 02:14:11;;;;;;;17.77;15.97;;;16.50;99.90;;;;;;5033394;28;20240;-64
2021/09/24 02:16:37;;;;;;;17.43;14.90;;;16.50;99.90;;;;;;5019997;28;20234;-64
2021/09/24 02:19:03;;;;;;;23.27;15.70;;;16.50;99.90;;;;;;5020863;28;20552;-64
2021/09/24 02:21:28;;;;;;;19.57;15.60;;;16.50;99.90;;;;;;5033212;28;20179;-64
2021/09/24 02:23:55;;;;;;;17.57;15.77;;;16.50;99.90;;;;;;5026836;28;20223;-64
2021/09/24 02:26:21;;;;;;;17.83;15.47;;;16.50;99.90;;;;;;5011951;28;20180;-64
2021/09/24 02:28:46;;;;;;;17.97;16.17;;;16.50;99.90;;;;;;5018086;28;20252;-69
2021/09/24 02:31:12;;;;;;;20.73;14.87;;;16.50;99.90;;;;;;5032626;28;20183;-67
2021/09/24 02:33:39;;;;;;;19.77;17.43;;;16.40;99.90;;;;;;5020291;28;20254;-68
2021/09/24 02:36:07;;;;;;;23.93;15.97;;;16.40;99.90;;;;;;5014383;28;20168;-68
2021/09/24 02:38:33;;;;;;;18.27;16.43;;;16.40;99.90;;;;;;5026211;28;20193;-69
2021/09/24 02:41:00;;;;;;;18.97;16.97;;;16.30;99.90;;;;;;5033862;28;20633;-70
2021/09/24 02:43:25;;;;;;;21.43;17.83;;;16.30;99.90;;;;;;5023024;28;20204;-68
2021/09/24 02:45:51;;;;;;;22.60;19.70;;;16.30;99.90;;;;;;5013206;28;20180;-69
2021/09/24 02:48:17;;;;;;;26.43;18.90;;;16.30;99.90;;;;;;5033731;28;20206;-68
2021/09/24 02:50:43;;;;;;;26.43;19.80;;;16.30;99.90;;;;;;5033303;28;20184;-70
2021/09/24 02:53:08;;;;;;;26.73;19.70;;;16.30;99.90;;;;;;5015518;28;20234;-68
2021/09/24 02:55:34;;;;;;;26.63;19.20;;;16.30;99.90;;;;;;5029929;28;20590;-69
2021/09/24 02:58:00;;;;;;;21.97;19.63;;;16.30;99.90;;;;;;5033793;28;20270;-67
2021/09/24 03:00:26;;;;;;;31.00;19.23;;;16.20;99.90;;;;;;5031703;28;20189;-69
2021/09/24 03:02:52;;;;;;;21.60;19.37;;;16.10;99.90;;;;;;5033705;28;20211;-69
2021/09/24 03:05:18;;;;;;;24.57;19.97;;;16.10;99.90;;;;;;5017905;28;20198;-70
2021/09/24 03:07:43;;;;;;;26.63;20.40;;;16.20;99.90;;;;;;5013901;28;20292;-68
2021/09/24 03:10:10;;;;;;;26.27;21.83;;;16.20;99.90;;;;;;5020619;28;20184;-70
2021/09/24 03:12:35;;;;;;;30.10;22.03;;;16.20;99.90;;;;;;5013422;28;20219;-69
2021/09/24 03:15:01;;;;;;;29.47;20.67;;;16.20;99.90;;;;;;5032795;28;20599;-70
2021/09/24 03:17:27;;;;;;;30.77;22.83;;;16.20;99.90;;;;;;5032935;28;20578;-69
2021/09/24 03:19:53;;;;;;;28.40;23.43;;;16.20;99.90;;;;;;5015211;28;20192;-67
2021/09/24 03:22:18;;;;;;;33.33;23.90;;;16.20;99.90;;;;;;5013274;28;20288;-69
2021/09/24 03:24:44;;;;;;;27.93;24.00;;;16.20;99.90;;;;;;5029369;28;20541;-69
2021/09/24 03:27:12;;;;;;;31.87;24.80;;;16.10;99.90;;;;;;5026097;28;20215;-67
2021/09/24 03:29:38;;;;;;;34.40;26.07;;;16.10;99.90;;;;;;5013091;28;20204;-68
2021/09/24 03:32:04;;;;;;;39.97;27.40;;;16.10;99.90;;;;;;5016711;28;20199;-66
2021/09/24 03:34:29;;;;;;;33.93;27.73;;;16.10;99.90;;;;;;5033555;28;20526;-70
2021/09/24 03:36:55;;;;;;;39.27;27.27;;;16.10;99.90;;;;;;5031863;28;20186;-67
2021/09/24 03:39:21;;;;;;;33.03;26.57;;;16.10;99.90;;;;;;5019876;28;20266;-68
2021/09/24 03:41:46;;;;;;;45.50;29.43;;;16.10;99.90;;;;;;5026082;28;20258;-67
2021/09/24 03:44:12;;;;;;;38.37;27.83;;;16.10;99.90;;;;;;5013070;28;20207;-66
2021/09/24 03:46:38;;;;;;;36.20;27.93;;;16.10;99.90;;;;;;5023060;28;20183;-69
2021/09/24 03:49:05;;;;;;;35.60;26.97;;;16.10;99.90;;;;;;5032726;28;20683;-70
2021/09/24 03:51:30;;;;;;;33.67;24.40;;;16.10;99.90;;;;;;5024879;28;20180;-70
2021/09/24 03:53:56;;;;;;;44.33;27.67;;;16.10;99.90;;;;;;5013194;28;20227;-64
2021/09/24 03:56:23;;;;;;;35.47;27.73;;;16.10;99.90;;;;;;5029107;28;20209;-66
2021/09/24 03:58:48;;;;;;;37.60;28.67;;;16.10;99.90;;;;;;5030325;28;20664;-66
2021/09/24 04:01:14;;;;;;;35.60;26.10;;;16.10;99.90;;;;;;5015370;28;20187;-66
2021/09/24 04:03:42;;;;;;;37.70;26.97;;;16.10;99.90;;;;;;5010479;28;20203;-65
2021/09/24 04:06:08;;;;;;;39.17;29.10;;;16.10;99.90;;;;;;5024834;28;20178;-65
2021/09/24 04:08:33;;;;;;;42.70;29.13;;;16.00;99.90;;;;;;5027382;28;20208;-66
2021/09/24 04:10:59;;;;;;;33.73;26.60;;;16.00;99.90;;;;;;5011665;28;20199;-66
2021/09/24 04:13:25;;;;;;;39.40;30.03;;;16.10;99.90;;;;;;5013655;28;20192;-65
2021/09/24 04:15:50;;;;;;;41.87;30.20;;;16.00;99.90;;;;;;5031461;28;20633;-65
2021/09/24 04:18:16;;;;;;;42.27;29.67;;;16.00;99.90;;;;;;5030769;28;20230;-66
2021/09/24 04:20:41;;;;;;;41.03;29.80;;;16.00;99.90;;;;;;5011425;28;20237;-66
2021/09/24 04:23:07;;;;;;;33.27;28.73;;;16.00;99.90;;;;;;5021038;28;20219;-66
2021/09/24 04:25:33;;;;;;;34.27;28.70;;;15.90;99.90;;;;;;5031414;28;20182;-65
2021/09/24 04:27:58;;;;;;;38.10;30.30;;;15.90;99.90;;;;;;5023112;28;20284;-65
2021/09/24 04:30:24;;;;;;;40.93;29.83;;;15.90;99.90;;;;;;5013823;28;20168;-65
2021/09/24 04:32:50;;;;;;;40.23;29.30;;;15.80;99.90;;;;;;5021270;28;20195;-66
2021/09/24 04:35:16;;;;;;;38.67;28.83;;;15.80;99.90;;;;;;5035474;28;20174;-65
2021/09/24 04:37:41;;;;;;;35.77;28.97;;;15.80;99.90;;;;;;5024542;28;20199;-65
2021/09/24 04:40:08;;;;;;;39.67;28.67;;;15.70;99.90;;;;;;5034791;28;20176;-65
2021/09/24 04:42:33;;;;;;;38.47;29.93;;;15.70;99.90;;;;;;5021185;28;20204;-66
2021/09/24 04:45:00;;;;;;;35.10;28.63;;;15.70;99.90;;;;;;5015387;28;20275;-66
2021/09/24 04:47:25;;;;;;;42.57;29.57;;;15.80;99.90;;;;;;5017783;28;20188;-66
2021/09/24 04:49:51;;;;;;;34.30;28.97;;;15.80;99.90;;;;;;5015018;28;20226;-65
2021/09/24 04:52:18;;;;;;;41.73;28.67;;;15.80;99.90;;;;;;5024942;28;20195;-66
2021/09/24 04:54:44;;;;;;;33.27;29.07;;;15.80;99.90;;;;;;5034918;28;20175;-65
2021/09/24 04:57:09;;;;;;;35.67;27.33;;;15.90;99.90;;;;;;5026229;28;20176;-65
2021/09/24 04:59:35;;;;;;;32.83;27.90;;;15.90;99.90;;;;;;5014791;28;20190;-65
2021/09/24 05:02:01;;;;;;;44.17;29.70;;;15.90;99.90;;;;;;5021261;28;20210;-66
2021/09/24 05:04:26;;;;;;;31.80;28.37;;;15.90;99.90;;;;;;5034552;28;20190;-65
2021/09/24 05:06:52;;;;;;;35.50;29.87;;;15.90;99.90;;;;;;5015720;28;20191;-66
2021/09/24 05:09:17;;;;;;;38.13;30.33;;;15.80;99.90;;;;;;5014728;28;20208;-66
2021/09/24 05:11:43;;;;;;;36.03;30.10;;;15.90;99.90;;;;;;5028644;28;20218;-65
2021/09/24 05:14:08;;;;;;;32.97;28.73;;;15.90;99.90;;;;;;5034416;28;20171;-65
2021/09/24 05:16:34;;;;;;;37.20;30.47;;;15.80;99.90;;;;;;5024721;28;20443;-66
2021/09/24 05:19:00;;;;;;;37.90;31.73;;;16.00;99.90;;;;;;5034282;28;20203;-66
2021/09/24 05:21:25;;;;;;;36.70;30.77;;;16.00;99.90;;;;;;5032763;28;20187;-66
2021/09/24 05:23:51;;;;;;;35.37;31.63;;;16.00;99.90;;;;;;5387472;22;20228;-66
2021/09/24 05:26:16;;;;;;;34.27;29.77;;;16.00;99.90;;;;;;5017266;28;20212;-65
2021/09/24 05:28:42;;;;;;;39.10;31.57;;;16.00;99.90;;;;;;5014420;28;20298;-65
2021/09/24 05:31:08;;;;;;;40.43;31.33;;;16.00;99.90;;;;;;5027974;28;20168;-65
2021/09/24 05:33:33;;;;;;;37.53;32.57;;;16.00;99.90;;;;;;5032052;28;20722;-66
2021/09/24 05:35:59;;;;;;;47.53;35.00;;;16.00;99.90;;;;;;5014432;28;20172;-64
2021/09/24 05:38:25;;;;;;;46.67;35.40;;;16.10;99.90;;;;;;5014226;28;20229;-65
2021/09/24 05:40:51;;;;;;;41.10;34.30;;;16.10;99.90;;;;;;4994067;28;20251;-65
2021/09/24 05:43:16;;;;;;;48.00;36.07;;;16.10;99.90;;;;;;4994646;28;20279;-65
2021/09/24 05:45:42;;;;;;;47.97;37.70;;;16.20;99.90;;;;;;5030769;28;20191;-65
2021/09/24 05:48:07;;;;;;;45.13;37.37;;;16.20;99.90;;;;;;5033991;28;20203;-65
2021/09/24 05:50:33;;;;;;;43.33;36.90;;;16.20;99.90;;;;;;5017180;28;20350;-65
2021/09/24 05:53:01;;;;;;;51.10;39.93;;;16.20;99.90;;;;;;5012162;28;20271;-66
2021/09/24 05:55:27;;;;;;;51.20;38.70;;;16.10;99.90;;;;;;5028439;28;20191;-66
2021/09/24 05:57:53;;;;;;;47.93;37.53;;;16.10;99.90;;;;;;5033601;28;20552;-65
2021/09/24 06:00:20;;;;;;;44.20;38.10;;;16.00;99.90;;;;;;5020069;28;20215;-66
2021/09/24 06:02:47;;;;;;;45.47;37.23;;;16.00;99.90;;;;;;5016234;28;20294;-66
2021/09/24 06:05:13;;;;;;;41.37;35.60;;;16.00;99.90;;;;;;5031713;28;20728;-66
2021/09/24 06:07:40;;;;;;;36.93;32.97;;;16.10;99.90;;;;;;5031973;28;20201;-66
2021/09/24 06:10:07;;;;;;;42.70;30.47;;;15.90;99.90;;;;;;5033255;28;20175;-66
2021/09/24 06:12:33;;;;;;;39.67;33.03;;;15.90;99.90;;;;;;5033100;28;20187;-66
2021/09/24 06:15:01;;;;;;;36.43;31.47;;;15.90;99.90;;;;;;5012979;28;20176;-66
2021/09/24 06:17:27;;;;;;;36.83;30.97;;;15.90;99.90;;;;;;5013600;28;20251;-66
2021/09/24 06:19:54;;;;;;;37.40;30.10;;;15.90;99.90;;;;;;5031258;28;20175;-67
2021/09/24 06:22:20;;;;;;;42.87;32.03;;;15.90;99.90;;;;;;5032340;28;20191;-65
2021/09/24 06:24:46;;;;;;;39.67;31.53;;;15.90;99.90;;;;;;5029893;28;20664;-65
2021/09/24 06:27:15;;;;;;;38.00;31.97;;;16.00;99.90;;;;;;5033332;28;20225;-66
2021/09/24 06:29:47;;;;;;;34.30;28.87;;;16.10;99.90;;;;;;5013450;28;20303;-67
2021/09/24 06:32:13;;;;;;;38.80;31.30;;;16.20;99.90;;;;;;5018769;28;20191;-67
2021/09/24 06:34:41;;;;;;;37.80;31.63;;;16.30;99.90;;;;;;5032950;28;20172;-67
2021/09/24 06:37:07;;;;;;;37.03;30.20;;;16.40;99.90;;;;;;5028220;28;20176;-66
2021/09/24 06:39:33;;;;;;;34.67;29.40;;;16.40;99.90;;;;;;5012805;28;20172;-67
2021/09/24 06:41:59;;;;;;;37.20;29.27;;;16.40;99.90;;;;;;5015460;28;20184;-66
2021/09/24 06:44:25;;;;;;;35.77;28.93;;;16.50;99.90;;;;;;5032744;28;20174;-66
2021/09/24 06:46:50;;;;;;;35.07;29.03;;;16.50;99.90;;;;;;5031370;28;20633;-67
2021/09/24 06:49:16;;;;;;;33.77;29.67;;;16.60;99.90;;;;;;5012613;28;20270;-66
2021/09/24 06:51:42;;;;;;;37.57;29.40;;;16.70;99.90;;;;;;5012085;28;20560;-66
2021/09/24 06:54:08;;;;;;;34.77;27.67;;;16.70;99.90;;;;;;5030565;28;20195;-67
2021/09/24 06:56:35;;;;;;;34.80;27.93;;;16.80;99.90;;;;;;5032473;28;20171;-66
2021/09/24 06:59:01;;;;;;;33.80;27.30;;;16.90;99.90;;;;;;5012888;28;20741;-66
2021/09/24 07:01:28;;;;;;;34.97;27.27;;;16.90;99.90;;;;;;5016963;28;20208;-67
2021/09/24 07:03:53;;;;;;;31.60;27.03;;;16.90;99.90;;;;;;5012498;28;20196;-66
2021/09/24 07:06:19;;;;;;;31.30;27.13;;;17.00;99.90;;;;;;5018264;28;20222;-66
2021/09/24 07:08:45;;;;;;;36.00;28.20;;;17.10;99.90;;;;;;5032109;28;20673;-66
2021/09/24 07:11:11;;;;;;;34.47;25.37;;;17.10;99.90;;;;;;5027264;28;20196;-66
2021/09/24 07:13:37;;;;;;;27.80;24.80;;;17.30;99.90;;;;;;5012498;28;20188;-67
2021/09/24 07:16:03;;;;;;;27.33;23.70;;;17.30;99.90;;;;;;5026509;28;20184;-67
2021/09/24 07:18:29;;;;;;;25.60;22.90;;;17.40;99.90;;;;;;5032226;28;20264;-67
2021/09/24 07:20:55;;;;;;;26.10;23.20;;;17.30;99.90;;;;;;5020854;28;20212;-66
2021/09/24 07:23:21;;;;;;;28.80;25.70;;;17.30;99.90;;;;;;5032733;28;20223;-66
2021/09/24 07:25:48;;;;;;;28.10;25.30;;;17.40;99.90;;;;;;5021579;28;20596;-66
2021/09/24 07:28:13;;;;;;;26.30;23.67;;;17.40;99.90;;;;;;5013753;28;20207;-65
2021/09/24 07:30:39;;;;;;;26.67;22.20;;;17.50;99.90;;;;;;5014810;28;20566;-66
2021/09/24 07:33:05;;;;;;;26.53;21.60;;;17.50;99.90;;;;;;5012138;28;20211;-66
2021/09/24 07:35:30;;;;;;;26.80;22.13;;;17.50;99.90;;;;;;5019172;28;20186;-65
2021/09/24 07:37:56;;;;;;;23.80;19.33;;;17.50;99.90;;;;;;5020321;28;20255;-66
2021/09/24 07:40:22;;;;;;;23.03;19.63;;;17.60;99.90;;;;;;5017020;28;20203;-66
2021/09/24 07:42:48;;;;;;;21.67;19.67;;;17.70;99.90;;;;;;5031639;28;20219;-65
2021/09/24 07:45:13;;;;;;;25.00;18.83;;;17.60;99.90;;;;;;5016910;28;20620;-66
2021/09/24 07:47:39;;;;;;;21.17;19.20;;;17.60;99.90;;;;;;5011808;28;20563;-66
2021/09/24 07:50:05;;;;;;;23.73;17.50;;;17.70;99.90;;;;;;5024417;28;20279;-66
2021/09/24 07:52:31;;;;;;;19.27;17.37;;;17.70;99.90;;;;;;5031373;28;20207;-66
2021/09/24 07:54:57;;;;;;;20.87;17.47;;;17.70;99.90;;;;;;5018938;28;20672;-65
2021/09/24 07:57:23;;;;;;;19.50;16.57;;;17.70;99.90;;;;;;5011864;28;20176;-66
2021/09/24 07:59:49;;;;;;;17.77;16.07;;;17.80;99.90;;;;;;5012504;28;20556;-65
2021/09/24 08:02:14;;;;;;;21.50;16.20;;;17.80;99.90;;;;;;5011709;28;20199;-65
2021/09/24 08:04:40;;;;;;;18.50;16.63;;;17.90;99.90;;;;;;5019243;28;20186;-66
2021/09/24 08:07:06;;;;;;;19.83;16.37;;;17.80;99.90;;;;;;5030674;28;20730;-66
2021/09/24 08:09:32;;;;;;;20.07;17.67;;;17.70;99.90;;;;;;5024564;28;20744;-66
2021/09/24 08:11:58;;;;;;;18.50;16.67;;;17.80;99.90;;;;;;5020133;28;20263;-65
2021/09/24 08:14:24;;;;;;;20.67;18.47;;;17.80;99.90;;;;;;5015600;28;20180;-65
2021/09/24 08:16:49;;;;;;;19.57;17.50;;;17.80;99.90;;;;;;5010804;28;20164;-65
2021/09/24 08:19:15;;;;;;;27.50;19.67;;;17.70;99.90;;;;;;5025018;28;20190;-66
2021/09/24 08:21:40;;;;;;;22.10;18.30;;;17.70;99.90;;;;;;5031168;28;20668;-66
2021/09/24 08:24:06;;;;;;;21.87;18.00;;;17.70;99.90;;;;;;5018869;28;20303;-66
2021/09/24 08:26:32;;;;;;;22.03;19.70;;;17.80;99.90;;;;;;5011640;28;20171;-66
2021/09/24 08:28:57;;;;;;;22.87;19.63;;;17.70;99.90;;;;;;5021331;28;20211;-66
2021/09/24 08:31:23;;;;;;;25.80;20.07;;;17.60;99.90;;;;;;5029881;28;20168;-66
2021/09/24 08:33:49;;;;;;;25.73;20.33;;;17.40;99.90;;;;;;5022213;28;20207;-66
2021/09/24 08:36:16;;;;;;;25.73;21.37;;;17.50;99.90;;;;;;5011691;28;20176;-65
2021/09/24 08:38:42;;;;;;;24.63;21.07;;;17.50;99.90;;;;;;5018134;28;20695;-66
2021/09/24 08:41:08;;;;;;;23.77;19.53;;;17.40;99.90;;;;;;5030861;28;20171;-66
2021/09/24 08:43:33;;;;;;;25.33;19.37;;;17.50;99.90;;;;;;5014547;28;20262;-68
2021/09/24 08:45:59;;;;;;;26.40;21.27;;;17.60;99.90;;;;;;5010306;28;20653;-65
2021/09/24 08:48:25;;;;;;;25.30;20.53;;;17.70;99.90;;;;;;5025632;28;20770;-65
2021/09/24 08:50:51;;;;;;;21.40;19.17;;;17.80;99.90;;;;;;5030828;28;20168;-66
2021/09/24 08:53:21;;;;;;;22.77;19.93;;;18.00;99.90;;;;;;5017791;28;20196;-67
2021/09/24 08:55:47;;;;;;;22.53;18.47;;;18.20;99.90;;;;;;5011323;28;20712;-67
2021/09/24 08:58:13;;;;;;;21.70;18.67;;;18.50;99.90;;;;;;5023017;28;20222;-66
2021/09/24 09:00:43;;;;;;;20.17;16.97;;;18.80;99.90;;;;;;5025404;28;20186;-67
2021/09/24 09:03:13;;;;;;;17.90;16.00;;;19.10;99.90;;;;;;5025730;28;20687;-65
2021/09/24 09:05:43;;;;;;;19.43;17.20;;;19.50;99.90;;;;;;5026268;28;20290;-65
2021/09/24 09:08:30;;;;;;;19.13;15.07;;;19.60;99.90;;;;;;5011392;28;20206;-66
2021/09/24 09:11:07;;;;;;;18.00;15.73;;;19.70;99.90;;;;;;5025463;28;20179;-66
2021/09/24 09:13:49;;;;;;;17.60;15.30;;;19.80;99.90;;;;;;5011142;28;20242;-66
2021/09/24 09:16:30;;;;;;;15.53;14.03;;;19.80;99.90;;;;;;5033782;28;20178;-66
2021/09/24 09:19:08;;;;;;;18.27;16.33;;;19.90;99.90;;;;;;5033906;28;20701;-66
2021/09/24 09:21:37;;;;;;;16.97;15.37;;;20.00;99.90;;;;;;4994958;28;20184;-66
2021/09/24 09:24:22;;;;;;;15.48;14.05;;;20.10;99.90;;;;;;4995953;28;20609;-65
2021/09/24 09:26:49;;;;;;;15.00;13.50;;;20.60;99.90;;;;;;5034353;28;20179;-66
2021/09/24 09:29:15;;;;;;;14.90;13.30;;;20.80;99.90;;;;;;5032305;28;20207;-66
2021/09/24 09:31:40;;;;;;;14.02;12.65;;;21.10;99.90;;;;;;5033939;28;20179;-66
2021/09/24 09:34:11;;;;;;;12.95;11.63;;;21.50;99.90;;;;;;5017088;28;20204;-66
2021/09/24 09:36:42;;;;;;;13.18;11.98;;;21.80;99.90;;;;;;5014154;28;20176;-66
2021/09/24 09:39:13;;;;;;;14.05;12.73;;;22.10;99.90;;;;;;5030336;28;20191;-65
2021/09/24 09:41:48;;;;;;;13.98;12.15;;;22.20;99.90;;;;;;5033854;28;20175;-66
2021/09/24 09:44:25;;;;;;;11.95;10.82;;;22.50;99.90;;;;;;5023904;28;20256;-66
2021/09/24 09:46:51;;;;;;;13.85;12.43;;;22.80;99.90;;;;;;5033858;28;20179;-66
2021/09/24 09:49:16;;;;;;;13.25;11.50;;;22.90;99.90;;;;;;5016905;28;20558;-67
2021/09/24 09:51:44;;;;;;;11.93;10.52;;;23.30;99.90;;;;;;5013939;28;20646;-65
2021/09/24 09:54:24;;;;;;;10.32;9.25;;;23.50;99.90;;;;;;5028884;28;20195;-66
2021/09/24 09:56:50;;;;;;;12.63;9.43;;;23.60;99.90;;;;;;5026860;28;20188;-66
2021/09/24 09:59:24;;;;;;;10.45;9.35;;;23.50;99.90;;;;;;5015095;28;20635;-67
2021/09/24 10:02:27;;;;;;;10.32;9.23;;;23.70;99.90;;;;;;5033450;28;20435;-64
2021/09/24 10:04:53;;;;;;;10.98;9.85;;;23.20;99.90;;;;;;5026955;28;20168;-64
2021/09/24 10:07:23;;;;;;;13.30;10.63;;;22.50;99.90;;;;;;5013704;28;20678;-65
2021/09/24 10:10:14;;;;;;;11.98;10.05;;;22.20;99.90;;;;;;5018228;28;20282;-64
2021/09/24 10:12:43;;;;;;;11.43;10.20;;;21.90;99.90;;;;;;5031434;28;20196;-64
2021/09/24 10:15:11;;;;;;;11.88;10.68;;;21.60;99.90;;;;;;5033624;28;20510;-64
2021/09/24 10:17:37;;;;;;;10.38;9.30;;;21.80;99.90;;;;;;5030665;28;20222;-64
2021/09/24 10:20:05;;;;;;;10.25;9.30;;;21.90;99.90;;;;;;5013209;28;20185;-66
2021/09/24 10:22:32;;;;;;;12.43;10.52;;;22.10;99.90;;;;;;5014220;28;20283;-65
2021/09/24 10:24:58;;;;;;;11.23;10.15;;;21.80;99.90;;;;;;5032971;28;20274;-65
2021/09/24 10:27:31;;;;;;;13.10;10.63;;;21.60;99.90;;;;;;5032167;28;20664;-63
2021/09/24 10:29:59;;;;;;;14.17;10.50;;;21.20;99.90;;;;;;5017207;28;20518;-63
2021/09/24 10:32:27;;;;;;;13.57;12.17;;;21.00;99.90;;;;;;5032907;28;20561;-66
2021/09/24 10:35:13;;;;;;;14.20;11.97;;;20.70;99.90;;;;;;5013347;28;20662;-66
2021/09/24 10:37:45;;;;;;;13.67;11.00;;;20.60;99.90;;;;;;5013447;28;20716;-66
2021/09/24 10:40:31;;;;;;;14.43;11.07;;;20.70;99.90;;;;;;5022307;28;20660;-67
2021/09/24 10:43:03;;;;;;;15.23;12.07;;;20.90;99.90;;;;;;5023233;28;20212;-66
2021/09/24 10:45:39;;;;;;;13.60;10.67;;;20.90;99.90;;;;;;5013151;28;20218;-66
2021/09/24 10:48:22;;;;;;;14.33;12.83;;;20.90;99.90;;;;;;5026977;28;20222;-66
2021/09/24 10:50:51;;;;;;;11.77;10.63;;;21.00;99.90;;;;;;5032159;28;20163;-65
2021/09/24 10:53:23;;;;;;;12.40;9.70;;;20.90;99.90;;;;;;5017229;28;20311;-65
2021/09/24 10:55:57;;;;;;;12.30;11.10;;;21.10;99.90;;;;;;5012696;28;20176;-65
2021/09/24 10:58:23;;;;;;;11.43;10.40;;;21.20;99.90;;;;;;5027973;28;20190;-64
2021/09/24 11:00:50;;;;;;;11.63;9.65;;;21.20;99.90;;;;;;5022849;28;20184;-66
2021/09/24 11:03:19;;;;;;;13.00;11.13;;;21.30;99.90;;;;;;5012678;28;20188;-66
2021/09/24 11:06:11;;;;;;;13.68;9.82;;;21.50;99.90;;;;;;5020372;28;20175;-66
2021/09/24 11:08:43;;;;;;;12.48;11.38;;;21.60;99.90;;;;;;5032117;28;20572;-66
2021/09/24 11:11:20;;;;;;;14.73;12.33;;;21.60;99.90;;;;;;5029128;28;20493;-66
2021/09/24 11:13:53;;;;;;;10.32;9.43;;;21.80;99.90;;;;;;5032066;28;20273;-66
2021/09/24 11:16:23;;;;;;;11.10;9.33;;;22.10;99.90;;;;;;5020637;28;20172;-66
2021/09/24 11:18:59;;;;;;;10.00;8.88;;;22.00;99.90;;;;;;5012100;28;20638;-64
2021/09/24 11:21:25;;;;;;;13.23;9.88;;;22.00;99.90;;;;;;5024049;28;20183;-66
2021/09/24 11:23:54;;;;;;;12.68;10.30;;;21.90;99.90;;;;;;5049394;22;20270;-65
2021/09/24 11:26:30;;;;;;;13.80;12.27;;;21.60;99.90;;;;;;5032110;28;20218;-64
2021/09/24 11:29:09;;;;;;;14.35;13.07;;;21.40;99.90;;;;;;5030241;28;20619;-63
2021/09/24 11:31:53;;;;;;;11.40;10.23;;;21.40;99.90;;;;;;5013892;28;20176;-64
2021/09/24 11:34:38;;;;;;;11.47;10.40;;;21.40;99.90;;;;;;5014830;28;20187;-64
2021/09/24 11:37:17;;;;;;;8.95;8.05;;;21.50;99.90;;;;;;5012161;28;20176;-63
2021/09/24 11:39:43;;;;;;;8.60;7.88;;;21.70;99.90;;;;;;5018025;28;20171;-63
2021/09/24 11:42:15;;;;;;;10.48;7.82;;;21.80;99.90;;;;;;5032128;28;20658;-64
2021/09/24 11:44:45;;;;;;;10.90;7.85;;;21.90;99.90;;;;;;5030334;28;20206;-64
2021/09/24 11:47:22;;;;;;;9.52;7.63;;;22.30;99.90;;;;;;5031782;28;20215;-64
2021/09/24 11:50:06;;;;;;;8.63;7.72;;;22.90;99.90;;;;;;5024908;28;20191;-64
2021/09/24 11:52:51;;;;;;;11.23;8.35;;;23.70;99.90;;;;;;5011979;28;20172;-63
2021/09/24 11:55:25;;;;;;;10.10;7.50;;;23.50;99.90;;;;;;4992355;28;20196;-66
2021/09/24 11:58:04;;;;;;;8.63;7.72;;;22.80;99.90;;;;;;4992494;28;20173;-65
2021/09/24 12:00:41;;;;;;;8.57;7.60;;;22.50;99.90;;;;;;5000209;28;20186;-65
2021/09/24 12:03:18;;;;;;;10.70;8.35;;;22.20;99.90;;;;;;5029673;28;20233;-66
2021/09/24 12:05:52;;;;;;;11.27;8.30;;;22.20;99.90;;;;;;5011709;28;20547;-66
2021/09/24 12:08:21;;;;;;;9.68;7.80;;;22.20;99.90;;;;;;5012871;28;20191;-65
2021/09/24 12:10:55;;;;;;;9.02;7.68;;;22.10;99.90;;;;;;5011169;28;20281;-66
2021/09/24 12:13:21;;;;;;;9.18;7.90;;;22.00;99.90;;;;;;5029836;28;20197;-66
2021/09/24 12:15:53;;;;;;;12.52;7.63;;;22.00;99.90;;;;;;5031269;28;20175;-66
2021/09/24 12:18:20;;;;;;;8.50;7.53;;;22.00;99.90;;;;;;5013956;28;20180;-65
2021/09/24 12:20:46;;;;;;;11.27;7.20;;;22.10;99.90;;;;;;5012449;28;20650;-66
2021/09/24 12:23:13;;;;;;;9.90;7.20;;;21.90;99.90;;;;;;5027845;28;21283;-65
2021/09/24 12:25:39;;;;;;;7.55;6.75;;;22.00;99.90;;;;;;5012214;28;20176;-66
2021/09/24 12:28:09;;;;;;;7.50;6.80;;;21.90;99.90;;;;;;5011579;28;20561;-66
2021/09/24 12:30:42;;;;;;;7.75;6.97;;;22.00;99.90;;;;;;5016234;28;20186;-65